sensor_id;sensor_type;location;lat;lon;timestamp;noise_LAeq;noise_LA_min;noise_LA_max;noise_LA01;noise_LA95
67324;Laerm;57667;51.438;5.968;2023-01-25T00:00:10;32.57;30.06;40.53;;
67324;Laerm;57667;51.438;5.968;2023-01-25T00:00:20;31.37;29.91;33.38;;
67324;Laerm;57667;51.438;5.968;2023-01-25T00:00:30;30.75;29.62;31.74;;
67324;Laerm;57667;51.438;5.968;2023-01-25T00:00:41;30.66;29.48;31.81;;
67324;Laerm;57667;51.438;5.968;2023-01-25T00:00:51;30.79;29.56;32.26;;
67324;Laerm;57667;51.438;5.968;2023-01-25T00:01:02;30.50;29.17;31.75;;
67324;Laerm;57667;51.438;5.968;2023-01-25T00:01:13;30.27;28.62;31.15;;
67324;Laerm;57667;51.438;5.968;2023-01-25T00:01:23;30.26;29.07;31.37;;
67324;Laerm;57667;51.438;5.968;2023-01-25T00:01:33;30.51;29.30;31.59;;
67324;Laerm;57667;51.438;5.968;2023-01-25T00:01:44;30.52;29.34;31.46;;
67324;Laerm;57667;51.438;5.968;2023-01-25T00:01:54;30.63;29.47;31.66;;
67324;Laerm;57667;51.438;5.968;2023-01-25T00:02:05;30.86;29.38;32.32;;
67324;Laerm;57667;51.438;5.968;2023-01-25T00:02:15;31.18;29.67;32.58;;
67324;Laerm;57667;51.438;5.968;2023-01-25T00:02:26;30.70;29.38;32.17;;
67324;Laerm;57667;51.438;5.968;2023-01-25T00:02:36;30.75;29.45;32.00;;
67324;Laerm;57667;51.438;5.968;2023-01-25T00:02:46;30.83;29.60;34.91;;
67324;Laerm;57667;51.438;5.968;2023-01-25T00:02:57;30.68;29.33;32.03;;
67324;Laerm;57667;51.438;5.968;2023-01-25T00:03:07;30.57;29.49;31.76;;
67324;Laerm;57667;51.438;5.968;2023-01-25T00:03:17;30.87;29.63;32.03;;
67324;Laerm;57667;51.438;5.968;2023-01-25T00:03:28;30.79;29.78;31.76;;
67324;Laerm;57667;51.438;5.968;2023-01-25T00:03:39;30.60;29.62;31.68;;
67324;Laerm;57667;51.438;5.968;2023-01-25T00:03:49;30.48;29.27;31.35;;
67324;Laerm;57667;51.438;5.968;2023-01-25T00:03:59;30.51;29.16;31.58;;
67324;Laerm;57667;51.438;5.968;2023-01-25T00:04:10;30.63;29.60;31.87;;
67324;Laerm;57667;51.438;5.968;2023-01-25T00:04:21;30.23;29.19;31.43;;
67324;Laerm;57667;51.438;5.968;2023-01-25T00:04:32;30.17;29.02;31.33;;
67324;Laerm;57667;51.438;5.968;2023-01-25T00:04:42;30.16;29.22;31.24;;
67324;Laerm;57667;51.438;5.968;2023-01-25T00:04:53;30.00;28.79;31.10;;
67324;Laerm;57667;51.438;5.968;2023-01-25T00:05:03;29.92;28.49;30.89;;
67324;Laerm;57667;51.438;5.968;2023-01-25T00:05:13;30.02;29.14;31.15;;
67324;Laerm;57667;51.438;5.968;2023-01-25T00:05:24;30.28;29.23;31.51;;
67324;Laerm;57667;51.438;5.968;2023-01-25T00:05:34;30.33;29.12;31.37;;
67324;Laerm;57667;51.438;5.968;2023-01-25T00:05:45;30.13;28.76;31.71;;
67324;Laerm;57667;51.438;5.968;2023-01-25T00:05:58;30.06;28.80;30.97;;
67324;Laerm;57667;51.438;5.968;2023-01-25T00:06:10;30.05;29.05;31.04;;
67324;Laerm;57667;51.438;5.968;2023-01-25T00:06:20;30.47;29.32;31.54;;
67324;Laerm;57667;51.438;5.968;2023-01-25T00:06:31;30.46;29.50;31.57;;
67324;Laerm;57667;51.438;5.968;2023-01-25T00:06:41;30.31;29.22;31.51;;
67324;Laerm;57667;51.438;5.968;2023-01-25T00:06:51;30.26;29.25;31.51;;
67324;Laerm;57667;51.438;5.968;2023-01-25T00:07:02;31.07;29.67;32.57;;
67324;Laerm;57667;51.438;5.968;2023-01-25T00:07:12;30.74;29.12;31.93;;
67324;Laerm;57667;51.438;5.968;2023-01-25T00:07:23;30.70;29.48;32.03;;
67324;Laerm;57667;51.438;5.968;2023-01-25T00:07:33;31.56;30.07;33.41;;
67324;Laerm;57667;51.438;5.968;2023-01-25T00:07:43;33.07;30.98;35.19;;
67324;Laerm;57667;51.438;5.968;2023-01-25T00:07:54;34.52;32.43;36.96;;
67324;Laerm;57667;51.438;5.968;2023-01-25T00:08:04;37.35;33.69;39.82;;
67324;Laerm;57667;51.438;5.968;2023-01-25T00:08:15;40.54;36.28;45.56;;
67324;Laerm;57667;51.438;5.968;2023-01-25T00:08:26;53.07;42.11;61.04;;
67324;Laerm;57667;51.438;5.968;2023-01-25T00:08:36;76.30;60.34;80.99;;
67324;Laerm;57667;51.438;5.968;2023-01-25T00:08:50;75.36;73.06;78.65;;
67324;Laerm;57667;51.438;5.968;2023-01-25T00:09:00;75.67;56.64;79.55;;
67324;Laerm;57667;51.438;5.968;2023-01-25T00:09:11;47.95;38.10;58.57;;
67324;Laerm;57667;51.438;5.968;2023-01-25T00:09:22;36.24;33.06;39.62;;
67324;Laerm;57667;51.438;5.968;2023-01-25T00:09:33;33.15;30.56;35.89;;
67324;Laerm;57667;51.438;5.968;2023-01-25T00:09:43;31.30;30.25;33.01;;
67324;Laerm;57667;51.438;5.968;2023-01-25T00:09:53;31.05;29.80;34.12;;
67324;Laerm;57667;51.438;5.968;2023-01-25T00:10:04;30.89;29.75;32.26;;
67324;Laerm;57667;51.438;5.968;2023-01-25T00:10:14;30.48;29.32;32.22;;
67324;Laerm;57667;51.438;5.968;2023-01-25T00:10:25;31.61;29.63;33.27;;
67324;Laerm;57667;51.438;5.968;2023-01-25T00:10:35;34.24;32.28;37.17;;
67324;Laerm;57667;51.438;5.968;2023-01-25T00:10:49;31.38;29.38;34.65;;
67324;Laerm;57667;51.438;5.968;2023-01-25T00:10:59;30.37;29.12;31.48;;
67324;Laerm;57667;51.438;5.968;2023-01-25T00:11:10;30.38;29.40;31.53;;
67324;Laerm;57667;51.438;5.968;2023-01-25T00:11:20;30.41;29.10;31.55;;
67324;Laerm;57667;51.438;5.968;2023-01-25T00:11:30;30.07;28.93;31.27;;
67324;Laerm;57667;51.438;5.968;2023-01-25T00:11:41;30.15;29.12;31.20;;
67324;Laerm;57667;51.438;5.968;2023-01-25T00:11:52;30.04;29.03;31.31;;
67324;Laerm;57667;51.438;5.968;2023-01-25T00:12:05;30.01;28.58;31.10;;
67324;Laerm;57667;51.438;5.968;2023-01-25T00:12:15;30.10;29.15;31.14;;
67324;Laerm;57667;51.438;5.968;2023-01-25T00:12:26;30.18;28.96;31.29;;
67324;Laerm;57667;51.438;5.968;2023-01-25T00:12:36;30.00;28.71;31.35;;
67324;Laerm;57667;51.438;5.968;2023-01-25T00:12:46;29.99;29.06;31.02;;
67324;Laerm;57667;51.438;5.968;2023-01-25T00:12:57;29.99;28.59;31.08;;
67324;Laerm;57667;51.438;5.968;2023-01-25T00:13:07;30.13;29.12;31.50;;
67324;Laerm;57667;51.438;5.968;2023-01-25T00:13:17;30.64;29.33;32.39;;
67324;Laerm;57667;51.438;5.968;2023-01-25T00:13:28;30.35;28.96;31.65;;
67324;Laerm;57667;51.438;5.968;2023-01-25T00:13:38;30.06;29.11;31.06;;
67324;Laerm;57667;51.438;5.968;2023-01-25T00:13:50;30.07;29.07;31.86;;
67324;Laerm;57667;51.438;5.968;2023-01-25T00:14:02;30.04;28.87;30.91;;
67324;Laerm;57667;51.438;5.968;2023-01-25T00:14:12;30.33;29.23;31.50;;
67324;Laerm;57667;51.438;5.968;2023-01-25T00:14:23;30.68;29.52;31.74;;
67324;Laerm;57667;51.438;5.968;2023-01-25T00:14:34;30.60;29.43;31.54;;
67324;Laerm;57667;51.438;5.968;2023-01-25T00:14:44;30.60;29.43;32.15;;
67324;Laerm;57667;51.438;5.968;2023-01-25T00:14:54;30.76;29.54;31.65;;
67324;Laerm;57667;51.438;5.968;2023-01-25T00:15:05;30.45;29.20;31.76;;
67324;Laerm;57667;51.438;5.968;2023-01-25T00:15:16;30.29;29.07;31.54;;
67324;Laerm;57667;51.438;5.968;2023-01-25T00:15:26;30.24;28.95;31.11;;
67324;Laerm;57667;51.438;5.968;2023-01-25T00:15:36;30.28;29.11;31.32;;
67324;Laerm;57667;51.438;5.968;2023-01-25T00:15:46;30.15;29.17;31.62;;
67324;Laerm;57667;51.438;5.968;2023-01-25T00:16:00;30.11;29.02;31.71;;
67324;Laerm;57667;51.438;5.968;2023-01-25T00:16:11;30.25;29.26;31.33;;
67324;Laerm;57667;51.438;5.968;2023-01-25T00:16:22;30.22;28.99;31.33;;
67324;Laerm;57667;51.438;5.968;2023-01-25T00:16:32;36.11;29.08;46.04;;
67324;Laerm;57667;51.438;5.968;2023-01-25T00:16:43;39.44;29.70;49.43;;
67324;Laerm;57667;51.438;5.968;2023-01-25T00:16:54;35.72;29.08;48.40;;
67324;Laerm;57667;51.438;5.968;2023-01-25T00:17:04;36.75;29.13;46.16;;
67324;Laerm;57667;51.438;5.968;2023-01-25T00:17:14;33.82;29.01;43.30;;
67324;Laerm;57667;51.438;5.968;2023-01-25T00:17:25;33.58;28.60;43.12;;
67324;Laerm;57667;51.438;5.968;2023-01-25T00:17:35;38.13;28.86;50.07;;
67324;Laerm;57667;51.438;5.968;2023-01-25T00:17:46;36.05;29.28;47.38;;
67324;Laerm;57667;51.438;5.968;2023-01-25T00:17:56;35.40;29.28;45.69;;
67324;Laerm;57667;51.438;5.968;2023-01-25T00:18:06;34.01;29.36;48.18;;
67324;Laerm;57667;51.438;5.968;2023-01-25T00:18:17;36.03;29.75;46.76;;
67324;Laerm;57667;51.438;5.968;2023-01-25T00:18:27;37.23;29.47;50.54;;
67324;Laerm;57667;51.438;5.968;2023-01-25T00:18:38;33.63;29.06;40.63;;
67324;Laerm;57667;51.438;5.968;2023-01-25T00:18:48;33.09;29.43;42.12;;
67324;Laerm;57667;51.438;5.968;2023-01-25T00:18:58;32.37;29.45;43.03;;
67324;Laerm;57667;51.438;5.968;2023-01-25T00:19:09;30.37;29.41;31.62;;
67324;Laerm;57667;51.438;5.968;2023-01-25T00:19:20;30.36;29.18;31.59;;
67324;Laerm;57667;51.438;5.968;2023-01-25T00:19:30;30.53;29.47;31.89;;
67324;Laerm;57667;51.438;5.968;2023-01-25T00:19:40;30.88;29.63;31.93;;
67324;Laerm;57667;51.438;5.968;2023-01-25T00:19:51;30.71;29.28;32.04;;
67324;Laerm;57667;51.438;5.968;2023-01-25T00:20:01;30.90;29.48;34.75;;
67324;Laerm;57667;51.438;5.968;2023-01-25T00:20:12;31.46;30.41;32.79;;
67324;Laerm;57667;51.438;5.968;2023-01-25T00:20:22;32.05;30.31;34.15;;
67324;Laerm;57667;51.438;5.968;2023-01-25T00:20:32;31.39;29.89;33.26;;
67324;Laerm;57667;51.438;5.968;2023-01-25T00:20:43;31.12;29.80;32.79;;
67324;Laerm;57667;51.438;5.968;2023-01-25T00:20:53;31.13;29.54;33.95;;
67324;Laerm;57667;51.438;5.968;2023-01-25T00:21:12;31.05;29.88;32.21;;
67324;Laerm;57667;51.438;5.968;2023-01-25T00:21:23;30.83;29.58;33.10;;
67324;Laerm;57667;51.438;5.968;2023-01-25T00:21:34;31.32;29.87;32.64;;
67324;Laerm;57667;51.438;5.968;2023-01-25T00:21:45;31.36;29.94;32.56;;
67324;Laerm;57667;51.438;5.968;2023-01-25T00:21:55;31.29;29.80;32.59;;
67324;Laerm;57667;51.438;5.968;2023-01-25T00:22:06;31.63;29.58;33.59;;
67324;Laerm;57667;51.438;5.968;2023-01-25T00:22:16;31.78;30.05;33.66;;
67324;Laerm;57667;51.438;5.968;2023-01-25T00:22:26;31.70;29.84;33.47;;
67324;Laerm;57667;51.438;5.968;2023-01-25T00:22:37;31.40;29.95;33.54;;
67324;Laerm;57667;51.438;5.968;2023-01-25T00:22:47;31.10;29.69;32.30;;
67324;Laerm;57667;51.438;5.968;2023-01-25T00:22:58;31.85;30.18;34.13;;
67324;Laerm;57667;51.438;5.968;2023-01-25T00:23:08;33.83;32.14;35.52;;
67324;Laerm;57667;51.438;5.968;2023-01-25T00:23:18;32.84;30.60;34.80;;
67324;Laerm;57667;51.438;5.968;2023-01-25T00:23:32;33.78;32.12;35.67;;
67324;Laerm;57667;51.438;5.968;2023-01-25T00:23:43;33.51;31.60;35.43;;
67324;Laerm;57667;51.438;5.968;2023-01-25T00:23:53;32.56;30.66;35.05;;
67324;Laerm;57667;51.438;5.968;2023-01-25T00:24:04;32.66;31.09;34.27;;
67324;Laerm;57667;51.438;5.968;2023-01-25T00:24:14;32.33;30.70;34.03;;
67324;Laerm;57667;51.438;5.968;2023-01-25T00:24:25;31.82;30.66;33.15;;
67324;Laerm;57667;51.438;5.968;2023-01-25T00:24:35;32.54;30.48;35.73;;
67324;Laerm;57667;51.438;5.968;2023-01-25T00:24:45;33.19;31.31;35.18;;
67324;Laerm;57667;51.438;5.968;2023-01-25T00:24:56;32.49;30.85;34.23;;
67324;Laerm;57667;51.438;5.968;2023-01-25T00:25:06;33.06;31.45;34.96;;
67324;Laerm;57667;51.438;5.968;2023-01-25T00:25:17;32.84;31.01;34.86;;
67324;Laerm;57667;51.438;5.968;2023-01-25T00:25:27;32.93;31.17;34.65;;
67324;Laerm;57667;51.438;5.968;2023-01-25T00:25:37;33.08;31.39;36.77;;
67324;Laerm;57667;51.438;5.968;2023-01-25T00:25:48;32.77;31.29;34.54;;
67324;Laerm;57667;51.438;5.968;2023-01-25T00:25:58;32.83;30.92;34.29;;
67324;Laerm;57667;51.438;5.968;2023-01-25T00:26:08;32.88;30.84;34.55;;
67324;Laerm;57667;51.438;5.968;2023-01-25T00:26:19;32.57;30.85;34.31;;
67324;Laerm;57667;51.438;5.968;2023-01-25T00:26:29;31.76;30.25;33.58;;
67324;Laerm;57667;51.438;5.968;2023-01-25T00:26:40;31.21;29.68;32.69;;
67324;Laerm;57667;51.438;5.968;2023-01-25T00:26:53;31.83;30.56;33.02;;
67324;Laerm;57667;51.438;5.968;2023-01-25T00:27:09;31.64;30.11;33.46;;
67324;Laerm;57667;51.438;5.968;2023-01-25T00:27:19;31.91;30.16;39.33;;
67324;Laerm;57667;51.438;5.968;2023-01-25T00:27:29;32.04;30.66;33.41;;
67324;Laerm;57667;51.438;5.968;2023-01-25T00:27:40;32.48;30.16;34.05;;
67324;Laerm;57667;51.438;5.968;2023-01-25T00:27:50;34.40;31.04;36.65;;
67324;Laerm;57667;51.438;5.968;2023-01-25T00:28:01;33.29;30.90;35.61;;
67324;Laerm;57667;51.438;5.968;2023-01-25T00:28:11;32.07;30.87;33.56;;
67324;Laerm;57667;51.438;5.968;2023-01-25T00:28:22;32.00;30.52;33.67;;
67324;Laerm;57667;51.438;5.968;2023-01-25T00:28:32;31.28;29.84;33.26;;
67324;Laerm;57667;51.438;5.968;2023-01-25T00:28:47;32.19;30.28;34.09;;
67324;Laerm;57667;51.438;5.968;2023-01-25T00:28:57;31.63;30.13;34.81;;
67324;Laerm;57667;51.438;5.968;2023-01-25T00:29:09;32.57;30.44;35.24;;
67324;Laerm;57667;51.438;5.968;2023-01-25T00:29:20;30.82;29.55;32.41;;
67324;Laerm;57667;51.438;5.968;2023-01-25T00:29:30;31.55;30.10;33.00;;
67324;Laerm;57667;51.438;5.968;2023-01-25T00:29:41;31.70;29.91;33.53;;
67324;Laerm;57667;51.438;5.968;2023-01-25T00:29:51;31.60;30.05;33.52;;
67324;Laerm;57667;51.438;5.968;2023-01-25T00:30:02;31.49;30.24;33.10;;
67324;Laerm;57667;51.438;5.968;2023-01-25T00:30:12;31.38;29.41;32.98;;
67324;Laerm;57667;51.438;5.968;2023-01-25T00:30:23;31.68;30.20;34.11;;
67324;Laerm;57667;51.438;5.968;2023-01-25T00:30:33;31.39;29.77;32.57;;
67324;Laerm;57667;51.438;5.968;2023-01-25T00:30:44;31.75;30.22;33.11;;
67324;Laerm;57667;51.438;5.968;2023-01-25T00:31:00;31.36;30.08;32.38;;
67324;Laerm;57667;51.438;5.968;2023-01-25T00:31:15;33.56;30.44;42.38;;
67324;Laerm;57667;51.438;5.968;2023-01-25T00:31:31;31.75;30.55;33.46;;
67324;Laerm;57667;51.438;5.968;2023-01-25T00:32:39;32.12;30.36;45.91;;
67324;Laerm;57667;51.438;5.968;2023-01-25T00:33:02;31.65;29.91;32.93;;
67324;Laerm;57667;51.438;5.968;2023-01-25T00:33:49;31.00;29.58;32.22;;
67324;Laerm;57667;51.438;5.968;2023-01-25T00:34:05;30.82;29.76;34.33;;
67324;Laerm;57667;51.438;5.968;2023-01-25T00:34:30;30.92;29.82;32.11;;
67324;Laerm;57667;51.438;5.968;2023-01-25T00:34:47;31.31;29.87;33.32;;
67324;Laerm;57667;51.438;5.968;2023-01-25T00:34:57;31.29;30.03;32.64;;
67324;Laerm;57667;51.438;5.968;2023-01-25T00:35:09;31.37;29.74;36.49;;
67324;Laerm;57667;51.438;5.968;2023-01-25T00:35:20;31.62;30.03;33.31;;
67324;Laerm;57667;51.438;5.968;2023-01-25T00:35:30;31.68;30.00;34.83;;
67324;Laerm;57667;51.438;5.968;2023-01-25T00:35:42;31.31;30.03;36.75;;
67324;Laerm;57667;51.438;5.968;2023-01-25T00:35:54;31.54;30.31;38.26;;
67324;Laerm;57667;51.438;5.968;2023-01-25T00:36:39;31.81;30.00;34.17;;
67324;Laerm;57667;51.438;5.968;2023-01-25T00:36:47;31.36;30.00;34.58;;
67324;Laerm;57667;51.438;5.968;2023-01-25T00:36:51;32.46;30.70;34.66;;
67324;Laerm;57667;51.438;5.968;2023-01-25T00:37:11;31.96;30.15;33.58;;
67324;Laerm;57667;51.438;5.968;2023-01-25T00:37:24;32.41;30.70;35.77;;
67324;Laerm;57667;51.438;5.968;2023-01-25T00:37:47;33.25;31.35;34.84;;
67324;Laerm;57667;51.438;5.968;2023-01-25T00:38:01;33.77;31.02;38.78;;
67324;Laerm;57667;51.438;5.968;2023-01-25T00:38:28;39.63;32.92;42.26;;
67324;Laerm;57667;51.438;5.968;2023-01-25T00:38:39;36.01;30.97;40.91;;
67324;Laerm;57667;51.438;5.968;2023-01-25T00:38:49;33.52;31.49;35.81;;
67324;Laerm;57667;51.438;5.968;2023-01-25T00:39:02;33.67;30.94;40.47;;
67324;Laerm;57667;51.438;5.968;2023-01-25T00:39:13;32.28;30.15;37.05;;
67324;Laerm;57667;51.438;5.968;2023-01-25T00:39:24;34.61;30.84;39.02;;
67324;Laerm;57667;51.438;5.968;2023-01-25T00:39:34;33.94;31.93;38.07;;
67324;Laerm;57667;51.438;5.968;2023-01-25T00:39:45;33.17;31.10;36.88;;
67324;Laerm;57667;51.438;5.968;2023-01-25T00:39:55;36.12;32.71;38.35;;
67324;Laerm;57667;51.438;5.968;2023-01-25T00:40:06;35.24;32.49;38.11;;
67324;Laerm;57667;51.438;5.968;2023-01-25T00:40:16;34.07;32.26;36.11;;
67324;Laerm;57667;51.438;5.968;2023-01-25T00:40:27;35.89;33.58;39.36;;
67324;Laerm;57667;51.438;5.968;2023-01-25T00:40:37;39.46;35.02;44.41;;
67324;Laerm;57667;51.438;5.968;2023-01-25T00:40:48;44.08;40.26;47.40;;
67324;Laerm;57667;51.438;5.968;2023-01-25T00:40:58;57.09;45.53;68.31;;
67324;Laerm;57667;51.438;5.968;2023-01-25T00:41:08;74.66;67.55;80.04;;
67324;Laerm;57667;51.438;5.968;2023-01-25T00:41:19;73.98;71.85;76.83;;
67324;Laerm;57667;51.438;5.968;2023-01-25T00:41:29;71.89;46.08;76.95;;
67324;Laerm;57667;51.438;5.968;2023-01-25T00:41:40;42.21;37.00;48.03;;
67324;Laerm;57667;51.438;5.968;2023-01-25T00:41:50;36.22;33.58;38.90;;
67324;Laerm;57667;51.438;5.968;2023-01-25T00:42:01;34.95;32.62;37.19;;
67324;Laerm;57667;51.438;5.968;2023-01-25T00:42:12;33.47;31.43;36.09;;
67324;Laerm;57667;51.438;5.968;2023-01-25T00:42:22;32.77;30.85;34.33;;
67324;Laerm;57667;51.438;5.968;2023-01-25T00:42:33;33.26;31.78;35.42;;
67324;Laerm;57667;51.438;5.968;2023-01-25T00:42:43;33.17;31.38;34.86;;
67324;Laerm;57667;51.438;5.968;2023-01-25T00:42:53;33.72;31.83;35.44;;
67324;Laerm;57667;51.438;5.968;2023-01-25T00:43:04;37.21;32.14;40.76;;
67324;Laerm;57667;51.438;5.968;2023-01-25T00:43:15;37.59;31.42;41.03;;
67324;Laerm;57667;51.438;5.968;2023-01-25T00:43:25;34.21;31.66;36.53;;
67324;Laerm;57667;51.438;5.968;2023-01-25T00:43:36;33.00;30.79;35.10;;
67324;Laerm;57667;51.438;5.968;2023-01-25T00:43:46;31.96;30.40;33.66;;
67324;Laerm;57667;51.438;5.968;2023-01-25T00:43:56;31.09;29.73;32.81;;
67324;Laerm;57667;51.438;5.968;2023-01-25T00:44:07;31.87;30.18;34.37;;
67324;Laerm;57667;51.438;5.968;2023-01-25T00:44:17;32.17;30.53;34.02;;
67324;Laerm;57667;51.438;5.968;2023-01-25T00:44:28;31.97;30.20;33.80;;
67324;Laerm;57667;51.438;5.968;2023-01-25T00:44:38;32.59;30.78;34.15;;
67324;Laerm;57667;51.438;5.968;2023-01-25T00:44:49;33.45;31.36;45.45;;
67324;Laerm;57667;51.438;5.968;2023-01-25T00:44:59;31.83;30.16;37.23;;
67324;Laerm;57667;51.438;5.968;2023-01-25T00:45:10;31.37;29.95;34.44;;
67324;Laerm;57667;51.438;5.968;2023-01-25T00:45:21;32.45;30.05;39.46;;
67324;Laerm;57667;51.438;5.968;2023-01-25T00:45:31;63.94;33.52;75.41;;
67324;Laerm;57667;51.438;5.968;2023-01-25T00:45:41;73.75;70.92;77.45;;
67324;Laerm;57667;51.438;5.968;2023-01-25T00:45:58;74.19;70.50;80.15;;
67324;Laerm;57667;51.438;5.968;2023-01-25T00:46:09;66.69;50.79;79.98;;
67324;Laerm;57667;51.438;5.968;2023-01-25T00:46:23;48.04;40.83;58.69;;
67324;Laerm;57667;51.438;5.968;2023-01-25T00:46:34;42.40;36.75;47.80;;
67324;Laerm;57667;51.438;5.968;2023-01-25T00:46:44;38.41;34.25;42.82;;
67324;Laerm;57667;51.438;5.968;2023-01-25T00:46:55;34.77;32.43;40.49;;
67324;Laerm;57667;51.438;5.968;2023-01-25T00:47:05;32.47;30.93;35.32;;
67324;Laerm;57667;51.438;5.968;2023-01-25T00:47:16;31.72;30.48;32.98;;
67324;Laerm;57667;51.438;5.968;2023-01-25T00:47:26;32.02;30.42;33.64;;
67324;Laerm;57667;51.438;5.968;2023-01-25T00:47:36;32.37;30.56;34.16;;
67324;Laerm;57667;51.438;5.968;2023-01-25T00:47:47;31.70;30.27;33.49;;
67324;Laerm;57667;51.438;5.968;2023-01-25T00:47:57;31.30;30.15;32.62;;
67324;Laerm;57667;51.438;5.968;2023-01-25T00:48:08;31.76;29.91;33.35;;
67324;Laerm;57667;51.438;5.968;2023-01-25T00:48:18;31.69;30.21;33.25;;
67324;Laerm;57667;51.438;5.968;2023-01-25T00:48:28;31.91;29.97;33.50;;
67324;Laerm;57667;51.438;5.968;2023-01-25T00:48:39;32.51;30.79;34.18;;
67324;Laerm;57667;51.438;5.968;2023-01-25T00:48:51;34.59;32.09;36.68;;
67324;Laerm;57667;51.438;5.968;2023-01-25T00:49:02;34.29;32.58;35.82;;
67324;Laerm;57667;51.438;5.968;2023-01-25T00:49:23;32.27;30.33;34.79;;
67324;Laerm;57667;51.438;5.968;2023-01-25T00:49:34;31.97;29.88;33.88;;
67324;Laerm;57667;51.438;5.968;2023-01-25T00:49:44;31.30;30.14;33.83;;
67324;Laerm;57667;51.438;5.968;2023-01-25T00:49:55;31.83;30.24;33.47;;
67324;Laerm;57667;51.438;5.968;2023-01-25T00:50:06;31.47;29.61;33.90;;
67324;Laerm;57667;51.438;5.968;2023-01-25T00:50:16;31.87;29.82;36.35;;
67324;Laerm;57667;51.438;5.968;2023-01-25T00:50:27;32.78;30.44;35.83;;
67324;Laerm;57667;51.438;5.968;2023-01-25T00:50:37;33.30;31.19;36.60;;
67324;Laerm;57667;51.438;5.968;2023-01-25T00:50:47;33.67;31.25;36.61;;
67324;Laerm;57667;51.438;5.968;2023-01-25T00:51:01;37.33;31.12;41.21;;
67324;Laerm;57667;51.438;5.968;2023-01-25T00:51:11;34.55;31.29;38.07;;
67324;Laerm;57667;51.438;5.968;2023-01-25T00:51:22;31.46;30.26;33.53;;
67324;Laerm;57667;51.438;5.968;2023-01-25T00:51:32;31.30;29.98;32.46;;
67324;Laerm;57667;51.438;5.968;2023-01-25T00:51:43;31.47;30.06;32.94;;
67324;Laerm;57667;51.438;5.968;2023-01-25T00:51:53;31.19;29.40;33.17;;
67324;Laerm;57667;51.438;5.968;2023-01-25T00:52:07;30.92;29.55;32.14;;
67324;Laerm;57667;51.438;5.968;2023-01-25T00:52:17;30.63;29.09;32.65;;
67324;Laerm;57667;51.438;5.968;2023-01-25T00:52:28;30.59;29.50;31.99;;
67324;Laerm;57667;51.438;5.968;2023-01-25T00:52:38;31.23;29.96;33.54;;
67324;Laerm;57667;51.438;5.968;2023-01-25T00:52:49;33.51;31.08;35.30;;
67324;Laerm;57667;51.438;5.968;2023-01-25T00:52:59;32.54;30.48;34.35;;
67324;Laerm;57667;51.438;5.968;2023-01-25T00:53:10;32.98;31.01;36.49;;
67324;Laerm;57667;51.438;5.968;2023-01-25T00:53:20;33.88;30.67;36.80;;
67324;Laerm;57667;51.438;5.968;2023-01-25T00:53:30;33.16;30.66;35.48;;
67324;Laerm;57667;51.438;5.968;2023-01-25T00:53:41;33.03;31.01;35.00;;
67324;Laerm;57667;51.438;5.968;2023-01-25T00:53:51;32.89;30.44;35.91;;
67324;Laerm;57667;51.438;5.968;2023-01-25T00:54:02;32.71;30.64;34.40;;
67324;Laerm;57667;51.438;5.968;2023-01-25T00:54:12;33.00;31.27;34.89;;
67324;Laerm;57667;51.438;5.968;2023-01-25T00:54:23;31.86;29.99;33.67;;
67324;Laerm;57667;51.438;5.968;2023-01-25T00:54:33;31.21;29.98;32.54;;
67324;Laerm;57667;51.438;5.968;2023-01-25T00:54:44;30.24;28.99;35.74;;
67324;Laerm;57667;51.438;5.968;2023-01-25T00:54:54;29.88;28.73;31.02;;
67324;Laerm;57667;51.438;5.968;2023-01-25T00:55:05;30.38;28.72;31.82;;
67324;Laerm;57667;51.438;5.968;2023-01-25T00:55:15;30.75;29.60;31.92;;
67324;Laerm;57667;51.438;5.968;2023-01-25T00:55:26;30.10;28.86;33.45;;
67324;Laerm;57667;51.438;5.968;2023-01-25T00:55:36;29.82;28.65;31.09;;
67324;Laerm;57667;51.438;5.968;2023-01-25T00:55:52;29.82;28.49;30.88;;
67324;Laerm;57667;51.438;5.968;2023-01-25T00:56:03;29.90;28.69;31.65;;
67324;Laerm;57667;51.438;5.968;2023-01-25T00:56:14;29.98;28.86;30.99;;
67324;Laerm;57667;51.438;5.968;2023-01-25T00:56:24;29.95;28.86;30.90;;
67324;Laerm;57667;51.438;5.968;2023-01-25T00:56:34;29.89;28.77;31.26;;
67324;Laerm;57667;51.438;5.968;2023-01-25T00:56:45;29.95;28.96;31.01;;
67324;Laerm;57667;51.438;5.968;2023-01-25T00:56:55;30.12;28.97;31.31;;
67324;Laerm;57667;51.438;5.968;2023-01-25T00:57:06;30.09;29.02;31.42;;
67324;Laerm;57667;51.438;5.968;2023-01-25T00:57:16;30.42;29.30;31.52;;
67324;Laerm;57667;51.438;5.968;2023-01-25T00:57:26;30.86;29.48;32.20;;
67324;Laerm;57667;51.438;5.968;2023-01-25T00:57:37;30.68;28.80;32.33;;
67324;Laerm;57667;51.438;5.968;2023-01-25T00:57:47;30.66;29.50;32.06;;
67324;Laerm;57667;51.438;5.968;2023-01-25T00:57:57;30.54;29.07;31.63;;
67324;Laerm;57667;51.438;5.968;2023-01-25T00:58:08;30.77;29.31;42.41;;
67324;Laerm;57667;51.438;5.968;2023-01-25T00:58:18;30.76;29.34;32.30;;
67324;Laerm;57667;51.438;5.968;2023-01-25T00:58:28;30.94;29.69;32.13;;
67324;Laerm;57667;51.438;5.968;2023-01-25T00:58:39;31.09;29.42;33.32;;
67324;Laerm;57667;51.438;5.968;2023-01-25T00:58:49;31.20;30.04;32.62;;
67324;Laerm;57667;51.438;5.968;2023-01-25T00:59:00;30.93;29.80;31.93;;
67324;Laerm;57667;51.438;5.968;2023-01-25T00:59:10;30.61;29.42;31.87;;
67324;Laerm;57667;51.438;5.968;2023-01-25T00:59:21;30.46;29.25;31.68;;
67324;Laerm;57667;51.438;5.968;2023-01-25T00:59:32;30.80;29.81;31.90;;
67324;Laerm;57667;51.438;5.968;2023-01-25T00:59:42;31.17;29.69;33.77;;
67324;Laerm;57667;51.438;5.968;2023-01-25T00:59:53;31.29;29.83;32.82;;
67324;Laerm;57667;51.438;5.968;2023-01-25T01:00:04;31.23;29.73;32.45;;
67324;Laerm;57667;51.438;5.968;2023-01-25T01:00:15;32.95;30.20;39.83;;
67324;Laerm;57667;51.438;5.968;2023-01-25T01:00:25;31.44;29.85;32.93;;
67324;Laerm;57667;51.438;5.968;2023-01-25T01:00:35;31.16;29.36;32.81;;
67324;Laerm;57667;51.438;5.968;2023-01-25T01:00:46;31.52;29.80;32.65;;
67324;Laerm;57667;51.438;5.968;2023-01-25T01:00:56;31.42;29.77;32.63;;
67324;Laerm;57667;51.438;5.968;2023-01-25T01:01:07;31.03;29.71;32.44;;
67324;Laerm;57667;51.438;5.968;2023-01-25T01:01:17;31.01;29.84;32.15;;
67324;Laerm;57667;51.438;5.968;2023-01-25T01:01:27;31.69;30.21;32.92;;
67324;Laerm;57667;51.438;5.968;2023-01-25T01:01:39;32.23;30.67;33.89;;
67324;Laerm;57667;51.438;5.968;2023-01-25T01:01:50;31.71;30.00;33.31;;
67324;Laerm;57667;51.438;5.968;2023-01-25T01:02:01;31.22;30.04;32.67;;
67324;Laerm;57667;51.438;5.968;2023-01-25T01:02:12;30.88;29.61;32.03;;
67324;Laerm;57667;51.438;5.968;2023-01-25T01:02:22;31.63;30.29;33.05;;
67324;Laerm;57667;51.438;5.968;2023-01-25T01:02:33;32.29;30.67;33.70;;
67324;Laerm;57667;51.438;5.968;2023-01-25T01:02:43;31.94;30.49;33.93;;
67324;Laerm;57667;51.438;5.968;2023-01-25T01:02:54;31.72;30.40;33.22;;
67324;Laerm;57667;51.438;5.968;2023-01-25T01:03:04;31.54;29.97;33.75;;
67324;Laerm;57667;51.438;5.968;2023-01-25T01:03:14;31.04;29.70;32.56;;
67324;Laerm;57667;51.438;5.968;2023-01-25T01:03:25;31.57;30.10;33.14;;
67324;Laerm;57667;51.438;5.968;2023-01-25T01:03:35;31.70;29.94;32.84;;
67324;Laerm;57667;51.438;5.968;2023-01-25T01:03:45;31.58;30.34;33.02;;